Time;durP1;ratioP1;P1;durP2;ratioP2;P2;SDS_P1;SDS_P2;PMS_P1;PMS_P2;Temp;Humidity;BMP_temperature;BMP_pressure;BME280_temperature;BME280_humidity;BME280_pressure;Samples;Min_cycle;Max_cycle;Signal;HPM_P1;HPM_P2
2024/02/20 00:00:53;;;;;;;0.30;0.20;;;;;;;9.91;93.93;101291.41;5072188;28;20499;-48
2024/02/20 00:03:20;;;;;;;0.40;0.20;;;;;;;9.97;93.56;101294.00;5071689;28;20551;-48
2024/02/20 00:05:46;;;;;;;0.30;0.20;;;;;;;10.07;92.72;101286.84;5063482;28;20536;-48
2024/02/20 00:08:13;;;;;;;0.30;0.20;;;;;;;10.21;91.81;101290.25;5072320;28;20460;-49
2024/02/20 00:10:40;;;;;;;0.30;0.20;;;;;;;10.09;91.90;101291.22;5071811;28;20820;-48
2024/02/20 00:13:06;;;;;;;0.30;0.20;;;;;;;9.97;90.67;101290.47;5071844;28;20836;-48
2024/02/20 00:15:34;;;;;;;0.30;0.20;;;;;;;10.40;89.94;101296.22;5071608;28;20457;-50
2024/02/20 00:18:01;;;;;;;0.30;0.20;;;;;;;10.12;89.92;101292.97;5070882;28;20453;-48
2024/02/20 00:20:27;;;;;;;0.30;0.20;;;;;;;10.22;88.74;101292.00;5071796;28;20446;-48
2024/02/20 00:22:54;;;;;;;0.30;0.20;;;;;;;10.14;88.05;101290.28;5071751;28;20550;-48
2024/02/20 00:25:20;;;;;;;0.30;0.20;;;;;;;10.02;88.09;101284.22;5072113;28;20541;-48
2024/02/20 00:27:47;;;;;;;0.30;0.20;;;;;;;10.21;87.32;101278.72;5061569;28;20512;-48
2024/02/20 00:30:14;;;;;;;0.30;0.20;;;;;;;9.99;87.32;101278.03;5067979;28;20585;-48
2024/02/20 00:32:40;;;;;;;0.30;0.20;;;;;;;9.97;86.46;101280.72;5071699;28;20501;-49
2024/02/20 00:35:08;;;;;;;0.30;0.20;;;;;;;9.93;87.43;101283.44;5056001;28;20536;-48
2024/02/20 00:37:35;;;;;;;0.30;0.20;;;;;;;9.82;88.47;101285.31;5071768;28;20832;-49
2024/02/20 00:40:03;;;;;;;0.30;0.20;;;;;;;9.83;87.89;101293.25;5071645;28;20456;-48
2024/02/20 00:42:30;;;;;;;0.30;0.20;;;;;;;9.86;88.33;101292.34;5071421;28;20466;-48
2024/02/20 00:45:01;;;;;;;0.30;0.20;;;;;;;9.80;87.78;101285.31;5071562;28;20573;-48
2024/02/20 00:47:28;;;;;;;0.30;0.20;;;;;;;9.70;88.27;101292.47;5052441;28;20444;-48
2024/02/20 00:49:54;;;;;;;0.30;0.20;;;;;;;9.75;88.64;101289.81;5055773;28;20959;-48
2024/02/20 00:52:41;;;;;;;0.30;0.20;;;;;;;9.74;89.27;101299.56;5073020;28;20477;-48
2024/02/20 00:55:09;;;;;;;0.30;0.20;;;;;;;9.65;88.92;101302.28;5052100;28;20441;-48
2024/02/20 00:57:35;;;;;;;0.30;0.20;;;;;;;9.62;89.43;101299.66;5075587;28;20457;-48
2024/02/20 01:00:03;;;;;;;0.30;0.20;;;;;;;9.71;89.17;101296.91;5075495;28;20537;-48
2024/02/20 01:02:29;;;;;;;0.30;0.20;;;;;;;9.66;89.05;101305.81;5075473;28;20504;-48
2024/02/20 01:04:56;;;;;;;0.30;0.20;;;;;;;9.43;89.51;101306.84;5066156;28;20576;-48
2024/02/20 01:07:24;;;;;;;0.30;0.20;;;;;;;9.50;89.65;101311.25;5048259;28;21092;-48
2024/02/20 01:09:50;;;;;;;0.30;0.20;;;;;;;9.49;89.60;101320.09;5075659;28;20445;-48
2024/02/20 01:12:17;;;;;;;0.30;0.20;;;;;;;9.45;89.61;101313.03;5069749;28;20482;-48
2024/02/20 01:14:44;;;;;;;0.30;0.20;;;;;;;9.55;90.04;101305.88;5054498;28;20947;-48
2024/02/20 01:17:10;;;;;;;0.30;0.20;;;;;;;9.44;89.99;101303.31;5075170;28;20461;-48
2024/02/20 01:19:37;;;;;;;0.30;0.20;;;;;;;9.54;90.34;101308.56;5075242;28;20448;-49
2024/02/20 01:22:03;;;;;;;0.30;0.20;;;;;;;9.58;90.57;101321.78;5074716;28;20531;-48
2024/02/20 01:24:29;;;;;;;0.30;0.20;;;;;;;9.76;89.75;101328.75;5074946;28;21067;-48
2024/02/20 01:26:57;;;;;;;0.30;0.20;;;;;;;9.65;89.92;101323.50;5042138;28;20440;-48
2024/02/20 01:29:23;;;;;;;0.30;0.20;;;;;;;9.66;89.69;101321.75;5054923;28;20473;-48
2024/02/20 01:31:49;;;;;;;0.30;0.20;;;;;;;9.55;89.71;101327.13;5068289;28;20521;-48
2024/02/20 01:34:16;;;;;;;0.30;0.20;;;;;;;9.59;90.06;101327.97;5038792;28;20444;-48
2024/02/20 01:36:43;;;;;;;0.30;0.20;;;;;;;9.73;89.65;101327.00;5067774;28;20951;-48
2024/02/20 01:39:09;;;;;;;0.30;0.20;;;;;;;9.74;89.77;101331.41;5075039;28;20454;-49
2024/02/20 01:41:35;;;;;;;0.30;0.20;;;;;;;9.68;90.01;101342.06;5074424;28;20452;-48
2024/02/20 01:44:02;;;;;;;0.30;0.20;;;;;;;9.84;89.86;101333.97;5073462;28;20485;-48
2024/02/20 01:46:28;;;;;;;0.30;0.20;;;;;;;9.73;89.49;101334.97;5071643;28;21304;-48
2024/02/20 01:48:55;;;;;;;0.30;0.20;;;;;;;9.69;90.49;101338.50;5045303;28;20446;-48
2024/02/20 01:51:23;;;;;;;0.30;0.20;;;;;;;9.50;90.50;101329.81;5071479;28;20479;-48
2024/02/20 01:53:50;;;;;;;0.30;0.20;;;;;;;9.60;90.97;101328.00;5074373;28;20577;-48
2024/02/20 01:56:18;;;;;;;0.30;0.20;;;;;;;9.54;91.18;101328.03;5074351;28;20445;-48
2024/02/20 01:58:44;;;;;;;0.30;0.20;;;;;;;9.53;90.95;101334.22;5074427;28;20537;-48
2024/02/20 02:01:11;;;;;;;0.30;0.20;;;;;;;9.57;90.64;101330.66;5074011;28;20935;-48
2024/02/20 02:03:37;;;;;;;0.30;0.20;;;;;;;9.59;90.95;101339.47;5068474;28;20490;-48
2024/02/20 02:06:04;;;;;;;0.30;0.20;;;;;;;9.56;90.69;101331.53;5069821;28;20934;-48
2024/02/20 02:08:31;;;;;;;0.30;0.20;;;;;;;9.56;90.34;101336.84;5074434;28;20539;-48
2024/02/20 02:10:58;;;;;;;0.30;0.20;;;;;;;9.54;90.39;101341.28;5073970;28;21045;-48
2024/02/20 02:13:24;;;;;;;0.30;0.20;;;;;;;9.55;90.30;101339.50;5074093;28;20561;-48
2024/02/20 02:15:51;;;;;;;0.30;0.20;;;;;;;9.55;90.17;101344.81;5073933;28;20442;-48
2024/02/20 02:18:17;;;;;;;0.30;0.20;;;;;;;9.47;90.21;101343.13;5074396;28;20457;-48
2024/02/20 02:20:44;;;;;;;0.30;0.20;;;;;;;9.62;90.05;101344.78;5073993;28;20454;-48
2024/02/20 02:23:11;;;;;;;0.30;0.20;;;;;;;9.48;90.08;101344.00;5074023;28;20560;-48
2024/02/20 02:25:38;;;;;;;0.30;0.20;;;;;;;9.30;90.31;101344.09;5073844;28;20485;-49
2024/02/20 02:28:04;;;;;;;0.30;0.20;;;;;;;9.38;90.88;101350.25;5049196;28;20448;-48
2024/02/20 02:30:33;;;;;;;0.30;0.20;;;;;;;9.50;90.82;101342.22;5072169;28;20453;-49
2024/02/20 02:32:59;;;;;;;0.30;0.20;;;;;;;9.34;90.71;101344.09;5073746;28;20473;-48
2024/02/20 02:35:26;;;;;;;0.30;0.20;;;;;;;9.43;90.22;101340.47;5058501;28;20449;-48
2024/02/20 02:37:53;;;;;;;0.30;0.20;;;;;;;9.45;90.23;101344.88;5073613;28;20450;-48
2024/02/20 02:40:19;;;;;;;0.30;0.20;;;;;;;9.26;90.88;101355.63;5073725;28;20453;-49
2024/02/20 02:42:46;;;;;;;0.30;0.20;;;;;;;9.19;91.00;101352.16;5073508;28;20543;-48
2024/02/20 02:45:12;;;;;;;0.30;0.20;;;;;;;9.15;90.86;101351.28;5073388;28;20492;-48
2024/02/20 02:47:39;;;;;;;0.30;0.20;;;;;;;9.32;90.93;101352.94;5050991;28;20451;-48
2024/02/20 02:50:06;;;;;;;0.30;0.20;;;;;;;9.08;90.82;101352.22;5046643;28;20450;-48
2024/02/20 02:52:32;;;;;;;0.30;0.20;;;;;;;9.13;91.05;101352.16;5073920;28;20481;-46
2024/02/20 02:54:59;;;;;;;0.30;0.20;;;;;;;9.27;90.56;101358.28;5033669;28;20822;-47
2024/02/20 02:57:26;;;;;;;0.30;0.20;;;;;;;9.26;90.58;101360.94;5060048;28;20445;-46
2024/02/20 02:59:53;;;;;;;0.30;0.20;;;;;;;9.23;90.52;101366.28;5073139;28;20574;-46
2024/02/20 03:02:21;;;;;;;0.30;0.20;;;;;;;9.06;91.53;101376.97;5073036;28;20473;-47
2024/02/20 03:04:48;;;;;;;0.30;0.20;;;;;;;9.26;91.13;101371.56;5063251;28;20579;-46
2024/02/20 03:07:14;;;;;;;0.30;0.20;;;;;;;9.18;90.96;101375.16;5073013;28;20453;-47
2024/02/20 03:09:41;;;;;;;0.30;0.20;;;;;;;9.18;90.97;101374.22;5073118;28;20453;-46
2024/02/20 03:12:07;;;;;;;0.30;0.20;;;;;;;9.09;91.11;101383.13;5072730;28;20523;-46
2024/02/20 03:14:34;;;;;;;0.30;0.20;;;;;;;9.19;91.65;101376.03;5072114;28;20521;-46
2024/02/20 03:17:00;;;;;;;0.30;0.20;;;;;;;9.19;91.22;101378.69;5043271;28;20518;-46
2024/02/20 03:19:27;;;;;;;0.30;0.20;;;;;;;9.07;91.11;101386.69;5048329;28;20453;-46
2024/02/20 03:21:54;;;;;;;0.30;0.20;;;;;;;9.08;91.45;101386.69;5072790;28;20470;-46
2024/02/20 03:24:21;;;;;;;0.30;0.20;;;;;;;9.12;91.33;101384.88;5072752;28;20569;-46
2024/02/20 03:26:47;;;;;;;0.30;0.20;;;;;;;9.46;91.93;101383.81;5069551;28;20550;-46
2024/02/20 03:29:14;;;;;;;0.30;0.20;;;;;;;9.16;91.42;101384.84;5049815;28;20446;-47
2024/02/20 03:31:42;;;;;;;0.30;0.20;;;;;;;8.84;92.28;101392.97;5072567;28;20525;-46
2024/02/20 03:34:09;;;;;;;0.30;0.20;;;;;;;8.72;93.38;101390.34;5059165;28;20940;-46
2024/02/20 03:36:36;;;;;;;0.30;0.20;;;;;;;8.56;94.18;101392.16;5064481;28;20450;-47
2024/02/20 03:39:03;;;;;;;0.30;0.20;;;;;;;8.41;95.55;101388.69;5072687;28;20453;-46
2024/02/20 03:41:29;;;;;;;0.30;0.20;;;;;;;8.28;95.85;101390.44;5072524;28;20569;-48
2024/02/20 03:43:55;;;;;;;0.30;0.20;;;;;;;8.22;96.01;101396.63;5072292;28;20883;-46
2024/02/20 03:46:22;;;;;;;0.30;0.20;;;;;;;8.22;95.41;101404.59;5071188;28;20450;-48
2024/02/20 03:48:48;;;;;;;0.30;0.20;;;;;;;7.96;96.36;101398.41;5042745;28;20505;-46
2024/02/20 03:51:17;;;;;;;0.30;0.20;;;;;;;8.03;95.92;101406.34;5055979;28;20450;-47
2024/02/20 03:53:44;;;;;;;0.30;0.20;;;;;;;8.06;96.04;101410.75;5072297;28;20477;-47
2024/02/20 03:56:12;;;;;;;0.30;0.20;;;;;;;7.94;96.57;101408.09;5072075;28;20457;-47
2024/02/20 03:58:39;;;;;;;0.30;0.20;;;;;;;7.81;97.80;101428.41;5072437;28;20495;-46
2024/02/20 04:01:06;;;;;;;0.30;0.20;;;;;;;7.72;96.68;101418.69;5072060;28;20449;-46
2024/02/20 04:03:33;;;;;;;0.30;0.20;;;;;;;8.01;96.49;101425.75;5053019;28;20854;-47
2024/02/20 04:06:00;;;;;;;0.30;0.20;;;;;;;7.65;96.96;101421.31;5069508;28;20511;-47
2024/02/20 04:08:31;;;;;;;0.30;0.20;;;;;;;7.87;97.14;101431.03;5072065;28;20442;-47
2024/02/20 04:10:58;;;;;;;0.30;0.20;;;;;;;7.93;96.78;101428.38;5045372;28;20537;-47
2024/02/20 04:13:25;;;;;;;0.30;0.20;;;;;;;7.69;97.20;101431.91;5072076;28;20469;-47
2024/02/20 04:15:52;;;;;;;0.30;0.20;;;;;;;7.64;97.79;101424.84;5072237;28;20533;-47
2024/02/20 04:18:19;;;;;;;0.30;0.20;;;;;;;7.51;97.04;101425.69;5072331;28;20888;-47
2024/02/20 04:20:46;;;;;;;0.30;0.20;;;;;;;7.27;96.85;101432.69;5072442;28;20546;-47
2024/02/20 04:23:13;;;;;;;0.30;0.20;;;;;;;7.46;96.77;101433.63;5071393;28;20560;-46
2024/02/20 04:25:39;;;;;;;0.30;0.20;;;;;;;7.58;96.62;101441.59;5072128;28;20509;-47
2024/02/20 04:28:06;;;;;;;0.30;0.20;;;;;;;7.12;96.80;101438.78;5046555;28;20984;-47
2024/02/20 04:30:34;;;;;;;0.30;0.20;;;;;;;7.01;97.37;101444.94;5070425;28;20453;-49
2024/02/20 04:33:01;;;;;;;0.30;0.20;;;;;;;6.86;97.83;101445.75;5072019;28;20724;-47
2024/02/20 04:35:27;;;;;;;0.30;0.20;;;;;;;6.67;98.38;101444.72;5048966;28;20446;-47
2024/02/20 04:37:54;;;;;;;0.30;0.20;;;;;;;6.78;99.61;101450.97;5072192;28;20532;-47
2024/02/20 04:40:24;;;;;;;0.30;0.20;;;;;;;6.90;98.82;101449.28;5072018;28;20539;-47
2024/02/20 04:42:51;;;;;;;0.30;0.20;;;;;;;6.87;99.12;101452.78;5071914;28;20993;-47
2024/02/20 04:45:18;;;;;;;0.30;0.20;;;;;;;6.79;99.55;101465.94;5071848;28;21006;-47
2024/02/20 04:47:44;;;;;;;0.30;0.20;;;;;;;6.94;99.30;101459.84;5048501;28;20490;-46
2024/02/20 04:50:11;;;;;;;0.30;0.20;;;;;;;7.18;99.48;101459.09;5059153;28;20967;-47
2024/02/20 04:52:38;;;;;;;0.30;0.20;;;;;;;7.00;99.03;101464.31;5071539;28;20515;-46
2024/02/20 04:55:04;;;;;;;0.30;0.20;;;;;;;7.03;100.00;101462.56;5072213;28;20499;-47
2024/02/20 04:57:31;;;;;;;0.30;0.20;;;;;;;7.29;100.00;101469.72;5071084;28;20458;-47
2024/02/20 04:59:58;;;;;;;0.30;0.20;;;;;;;7.49;99.25;101477.72;5072076;28;20528;-47
2024/02/20 05:02:25;;;;;;;0.30;0.20;;;;;;;7.70;98.36;101483.06;5071158;28;20481;-47
2024/02/20 05:04:51;;;;;;;0.30;0.20;;;;;;;7.79;97.82;101480.44;5061354;28;20494;-46
2024/02/20 05:07:22;;;;;;;0.30;0.20;;;;;;;8.02;96.89;101484.00;5071892;28;20442;-47
2024/02/20 05:09:49;;;;;;;0.30;0.20;;;;;;;8.11;95.81;101476.97;5071553;28;20523;-47
2024/02/20 05:12:16;;;;;;;0.30;0.20;;;;;;;8.46;94.82;101472.56;5071323;28;20473;-47
2024/02/20 05:14:46;;;;;;;0.30;0.20;;;;;;;8.35;94.68;101470.78;5054165;28;20475;-47
2024/02/20 05:17:12;;;;;;;0.30;0.20;;;;;;;8.33;95.05;101473.41;5057766;28;20478;-47
2024/02/20 05:19:39;;;;;;;0.30;0.20;;;;;;;8.19;95.36;101469.88;5050205;28;20454;-47
2024/02/20 05:22:06;;;;;;;0.40;0.20;;;;;;;8.27;95.18;101476.06;5071420;28;20492;-47
2024/02/20 05:24:34;;;;;;;0.30;0.20;;;;;;;8.55;94.04;101480.50;5071133;28;20922;-47
2024/02/20 05:27:03;;;;;;;0.30;0.20;;;;;;;8.84;93.27;101480.47;5063904;28;20506;-47
2024/02/20 05:29:30;;;;;;;0.30;0.20;;;;;;;8.52;93.29;101480.53;5052213;28;20550;-47
2024/02/20 05:31:57;;;;;;;0.30;0.20;;;;;;;8.51;94.01;101478.75;5070748;28;20843;-46
2024/02/20 05:34:24;;;;;;;0.30;0.20;;;;;;;8.51;94.36;101476.09;5053285;28;20452;-47
2024/02/20 05:36:50;;;;;;;0.30;0.20;;;;;;;8.84;93.31;101480.47;5065763;28;20495;-47
2024/02/20 05:39:17;;;;;;;0.30;0.20;;;;;;;8.73;93.07;101490.19;5073805;28;20476;-47
2024/02/20 05:41:43;;;;;;;0.30;0.20;;;;;;;8.79;92.81;101484.91;5074459;28;20532;-47
2024/02/20 05:44:10;;;;;;;0.30;0.20;;;;;;;8.57;93.85;101485.81;5074682;28;20901;-47
2024/02/20 05:46:37;;;;;;;0.30;0.20;;;;;;;8.54;93.94;101478.75;5068995;28;21014;-46
2024/02/20 05:49:03;;;;;;;0.30;0.20;;;;;;;8.55;93.25;101479.63;5046669;28;20471;-47
2024/02/20 05:51:32;;;;;;;0.30;0.20;;;;;;;8.44;94.25;101486.69;5073093;28;20495;-47
2024/02/20 05:53:59;;;;;;;0.30;0.20;;;;;;;8.45;94.44;101483.16;5074470;28;21025;-47
2024/02/20 05:56:26;;;;;;;0.30;0.20;;;;;;;8.17;94.79;101485.78;5074281;28;20445;-47
2024/02/20 05:58:52;;;;;;;0.30;0.20;;;;;;;8.17;95.85;101474.31;5074403;28;20450;-46
2024/02/20 06:01:20;;;;;;;0.30;0.20;;;;;;;8.08;96.03;101482.22;5073901;28;20532;-46
2024/02/20 06:03:47;;;;;;;0.30;0.20;;;;;;;8.10;95.82;101484.03;5066501;28;20501;-48
2024/02/20 06:06:13;;;;;;;0.30;0.20;;;;;;;8.15;96.47;101486.66;5073299;28;20493;-46
2024/02/20 06:08:46;;;;;;;0.30;0.20;;;;;;;8.14;96.41;101490.19;5074248;28;20514;-47
2024/02/20 06:11:17;;;;;;;0.30;0.20;;;;;;;8.27;96.21;101489.31;5074398;28;20457;-46
2024/02/20 06:13:45;;;;;;;0.30;0.20;;;;;;;8.26;96.59;101490.22;5073866;28;20473;-47
2024/02/20 06:16:11;;;;;;;0.30;0.20;;;;;;;8.49;96.42;101500.81;5074155;28;20450;-47
2024/02/20 06:18:38;;;;;;;0.30;0.20;;;;;;;8.44;95.69;101502.59;5073835;28;20480;-47
2024/02/20 06:21:08;;;;;;;0.30;0.20;;;;;;;8.44;95.71;101499.94;5074054;28;20450;-48
2024/02/20 06:23:43;;;;;;;0.30;0.20;;;;;;;8.32;95.94;101508.75;5073842;28;20473;-47
2024/02/20 06:26:10;;;;;;;0.30;0.20;;;;;;;8.55;96.13;101499.06;5073697;28;20574;-47
2024/02/20 06:28:41;;;;;;;0.30;0.20;;;;;;;8.50;95.91;101499.97;5073572;28;20964;-47
2024/02/20 06:31:08;;;;;;;0.30;0.20;;;;;;;8.45;95.83;101509.66;5073992;28;20446;-47
2024/02/20 06:33:35;;;;;;;0.30;0.20;;;;;;;8.51;96.40;101509.69;5069022;28;20470;-48
2024/02/20 06:36:03;;;;;;;0.30;0.20;;;;;;;8.50;95.78;101513.22;5045056;28;20943;-47
2024/02/20 06:38:32;;;;;;;0.30;0.20;;;;;;;8.50;96.15;101508.78;5053725;28;20811;-48
2024/02/20 06:41:02;;;;;;;0.30;0.20;;;;;;;8.55;96.00;101514.09;5065158;28;20496;-47
2024/02/20 06:43:28;;;;;;;0.30;0.20;;;;;;;8.71;95.70;101522.91;5073247;28;20986;-47
2024/02/20 06:45:55;;;;;;;0.30;0.20;;;;;;;8.68;95.49;101529.09;5073571;28;20865;-47
2024/02/20 06:48:22;;;;;;;0.33;0.27;;;;;;;8.86;94.38;101530.81;5045188;28;20455;-47
2024/02/20 06:50:49;;;;;;;0.30;0.20;;;;;;;8.79;94.48;101529.09;5065145;28;20545;-47
2024/02/20 06:53:15;;;;;;;0.30;0.20;;;;;;;8.72;95.11;101532.63;5072929;28;20478;-48
2024/02/20 06:55:42;;;;;;;0.30;0.20;;;;;;;8.71;95.26;101526.44;5073415;28;20450;-47
2024/02/20 06:58:08;;;;;;;0.30;0.20;;;;;;;8.80;94.58;101536.16;5073254;28;20499;-48
2024/02/20 07:00:38;;;;;;;0.30;0.20;;;;;;;8.72;94.75;101537.91;5073372;28;20460;-47
2024/02/20 07:03:06;;;;;;;0.30;0.20;;;;;;;8.75;94.58;101537.91;5073152;28;20466;-47
2024/02/20 07:05:33;;;;;;;0.30;0.20;;;;;;;8.75;94.98;101532.59;5063782;28;21075;-46
2024/02/20 07:08:00;;;;;;;0.30;0.20;;;;;;;8.70;95.43;101534.38;5072938;28;20480;-48
2024/02/20 07:10:26;;;;;;;0.30;0.20;;;;;;;8.57;96.17;101542.34;5046327;28;20458;-47
2024/02/20 07:12:57;;;;;;;0.30;0.20;;;;;;;8.65;96.47;101546.78;5073249;28;20561;-47
2024/02/20 07:15:24;;;;;;;0.30;0.20;;;;;;;8.72;96.70;101543.22;5072993;28;20449;-48
2024/02/20 07:17:51;;;;;;;0.30;0.20;;;;;;;8.66;96.73;101551.19;5072933;28;20943;-47
2024/02/20 07:20:17;;;;;;;0.30;0.20;;;;;;;8.75;97.23;101543.19;5072807;28;20556;-48
2024/02/20 07:22:44;;;;;;;0.30;0.20;;;;;;;8.81;97.42;101545.88;5072781;28;20481;-48
2024/02/20 07:25:19;;;;;;;0.30;0.20;;;;;;;8.83;97.40;101552.03;5072980;28;20573;-47
2024/02/20 07:27:46;;;;;;;0.30;0.20;;;;;;;8.82;97.22;101543.22;5051703;28;20494;-48
2024/02/20 07:30:13;;;;;;;0.30;0.20;;;;;;;8.88;96.86;101548.50;5065454;28;20460;-47
2024/02/20 07:32:41;;;;;;;0.40;0.20;;;;;;;8.99;96.31;101550.25;5072288;28;20476;-48
2024/02/20 07:35:12;;;;;;;0.30;0.20;;;;;;;9.16;95.90;101540.47;5048953;28;20474;-48
2024/02/20 07:37:40;;;;;;;0.30;0.20;;;;;;;9.18;94.42;101550.22;5072637;28;20478;-48
2024/02/20 07:40:08;;;;;;;0.30;0.20;;;;;;;9.33;93.96;101551.94;5072409;28;20842;-47
2024/02/20 07:42:37;;;;;;;0.30;0.20;;;;;;;9.42;93.49;101551.00;5072368;28;20466;-48
2024/02/20 07:45:04;;;;;;;0.30;0.20;;;;;;;9.71;92.57;101559.75;5072085;28;20544;-47
2024/02/20 07:47:30;;;;;;;0.30;0.20;;;;;;;9.78;92.17;101560.59;5052110;28;20948;-48
2024/02/20 07:49:57;;;;;;;0.30;0.20;;;;;;;9.84;92.23;101562.34;5056161;28;20449;-48
2024/02/20 07:52:24;;;;;;;0.30;0.20;;;;;;;9.89;91.72;101563.22;5072208;28;20474;-47
2024/02/20 07:54:51;;;;;;;0.30;0.20;;;;;;;9.65;92.17;101562.44;5072073;28;20552;-47
2024/02/20 07:57:17;;;;;;;0.30;0.20;;;;;;;9.85;92.23;101564.97;5072219;28;20571;-47
2024/02/20 07:59:44;;;;;;;0.30;0.20;;;;;;;9.76;91.92;101568.59;5072101;28;20450;-48
2024/02/20 08:02:10;;;;;;;0.30;0.20;;;;;;;9.93;91.79;101565.84;5071718;28;20557;-48
2024/02/20 08:04:37;;;;;;;0.30;0.20;;;;;;;10.00;92.32;101561.34;5061128;28;20989;-47
2024/02/20 08:07:04;;;;;;;0.30;0.20;;;;;;;10.17;92.23;101559.50;5072125;28;20499;-48
2024/02/20 08:09:31;;;;;;;0.30;0.20;;;;;;;10.17;91.11;101559.50;5072089;28;20472;-48
2024/02/20 08:11:57;;;;;;;0.30;0.20;;;;;;;10.12;91.51;101563.94;5072177;28;20477;-48
2024/02/20 08:14:25;;;;;;;0.30;0.20;;;;;;;10.20;91.31;101561.25;5071807;28;20911;-48
2024/02/20 08:16:51;;;;;;;0.30;0.20;;;;;;;10.41;91.17;101561.13;5071959;28;20537;-48
2024/02/20 08:19:18;;;;;;;0.30;0.20;;;;;;;10.39;90.04;101561.13;5072077;28;20537;-48
2024/02/20 08:21:45;;;;;;;0.30;0.20;;;;;;;10.59;89.04;101553.03;5072117;28;20453;-48
2024/02/20 08:24:11;;;;;;;0.30;0.20;;;;;;;10.57;89.54;101559.25;5071828;28;20540;-48
2024/02/20 08:26:38;;;;;;;0.30;0.20;;;;;;;10.79;89.00;101562.59;5070812;28;20564;-47
2024/02/20 08:29:04;;;;;;;0.30;0.20;;;;;;;10.92;88.29;101556.25;5045803;28;20954;-48
2024/02/20 08:31:30;;;;;;;0.30;0.20;;;;;;;10.80;88.61;101559.03;5071439;28;20452;-48
2024/02/20 08:33:57;;;;;;;0.30;0.20;;;;;;;11.06;88.22;101558.78;5061103;28;20538;-47
2024/02/20 08:36:24;;;;;;;0.30;0.20;;;;;;;10.98;87.26;101559.75;5058355;28;20453;-47
2024/02/20 08:38:50;;;;;;;0.30;0.20;;;;;;;10.91;86.87;101571.34;5046270;28;20445;-48
2024/02/20 08:41:17;;;;;;;0.30;0.20;;;;;;;10.97;86.49;101571.31;5071420;28;20452;-47
2024/02/20 08:43:45;;;;;;;0.30;0.20;;;;;;;11.17;86.55;101575.53;5071580;28;20501;-47
2024/02/20 08:46:12;;;;;;;0.30;0.20;;;;;;;11.35;86.59;101574.44;5071744;28;20830;-47
2024/02/20 08:48:38;;;;;;;0.30;0.20;;;;;;;11.39;85.54;101571.75;5040402;28;20512;-47
2024/02/20 08:51:05;;;;;;;0.30;0.20;;;;;;;11.52;85.51;101570.72;5051563;28;20508;-48
2024/02/20 08:53:31;;;;;;;0.30;0.20;;;;;;;11.32;86.17;101570.03;5052128;28;20540;-50
2024/02/20 08:55:58;;;;;;;0.30;0.20;;;;;;;11.11;85.70;101576.50;5052483;28;20817;-50
2024/02/20 08:58:25;;;;;;;0.30;0.20;;;;;;;11.45;84.62;101579.66;5054169;28;20546;-50
2024/02/20 09:00:52;;;;;;;0.30;0.20;;;;;;;11.38;83.92;101579.75;5031493;28;20943;-50
2024/02/20 09:03:19;;;;;;;0.30;0.20;;;;;;;11.21;84.69;101578.13;5031477;28;20471;-50
2024/02/20 09:05:45;;;;;;;0.30;0.20;;;;;;;11.36;83.81;101579.75;5063291;28;20539;-50
2024/02/20 09:08:14;;;;;;;0.30;0.20;;;;;;;11.27;83.65;101571.88;5048210;28;20473;-50
2024/02/20 09:10:41;;;;;;;0.30;0.20;;;;;;;11.18;84.12;101574.63;5071100;28;20481;-50
2024/02/20 09:13:07;;;;;;;0.30;0.20;;;;;;;11.47;83.30;101577.84;5072342;28;20500;-50
2024/02/20 09:15:35;;;;;;;0.30;0.20;;;;;;;11.41;82.89;101580.59;5075341;28;20446;-50
2024/02/20 09:18:02;;;;;;;0.30;0.20;;;;;;;11.28;82.48;101586.97;5075194;28;20527;-50
2024/02/20 09:20:28;;;;;;;0.30;0.20;;;;;;;11.34;82.26;101586.00;5075118;28;20446;-50
2024/02/20 09:22:55;;;;;;;0.30;0.20;;;;;;;11.78;83.63;101581.03;5075064;28;20469;-50
2024/02/20 09:25:21;;;;;;;0.30;0.20;;;;;;;11.66;82.82;101583.88;5071438;28;20533;-50
2024/02/20 09:27:48;;;;;;;0.30;0.20;;;;;;;11.66;82.53;101586.53;5045272;28;20450;-50
2024/02/20 09:30:14;;;;;;;0.30;0.20;;;;;;;11.65;82.42;101583.84;5071958;28;20454;-50
2024/02/20 09:32:43;;;;;;;0.30;0.20;;;;;;;11.86;82.12;101595.16;5054686;28;20467;-50
2024/02/20 09:35:09;;;;;;;0.30;0.20;;;;;;;12.11;81.84;101586.84;5046327;28;20460;-50
2024/02/20 09:37:36;;;;;;;5.50;4.97;;;;;;;12.29;81.04;101588.38;5074782;28;20828;-50
2024/02/20 09:40:04;;;;;;;0.30;0.20;;;;;;;12.03;79.81;101592.28;5074576;28;20473;-50
2024/02/20 09:42:39;;;;;;;0.30;0.20;;;;;;;12.28;80.36;101599.94;5074620;28;20524;-50
2024/02/20 09:45:17;;;;;;;0.30;0.20;;;;;;;12.36;79.60;101598.06;5074934;28;20445;-50
2024/02/20 09:47:46;;;;;;;0.30;0.20;;;;;;;12.46;79.49;101602.31;5051661;28;20715;-50
2024/02/20 09:50:17;;;;;;;0.30;0.20;;;;;;;12.40;79.13;101603.31;5062988;28;20452;-50
2024/02/20 09:52:49;;;;;;;0.30;0.20;;;;;;;12.45;78.62;101609.44;5074218;28;20504;-50
2024/02/20 09:55:21;;;;;;;0.50;0.50;;;;;;;12.55;80.08;101607.53;5074673;28;20446;-50
2024/02/20 09:57:49;;;;;;;0.30;0.20;;;;;;;12.86;79.16;101599.00;5074470;28;20811;-50
2024/02/20 10:00:19;;;;;;;0.30;0.20;;;;;;;12.26;77.97;101615.06;5074460;28;20511;-50
2024/02/20 10:02:46;;;;;;;0.30;0.20;;;;;;;12.44;78.30;101602.34;5074438;28;20557;-50
2024/02/20 10:05:17;;;;;;;0.30;0.20;;;;;;;12.43;77.73;101608.59;5061041;28;20449;-50
2024/02/20 10:07:44;;;;;;;0.30;0.20;;;;;;;12.10;77.53;101614.41;5052207;28;21180;-50
2024/02/20 10:10:16;;;;;;;0.30;0.20;;;;;;;12.11;77.09;101610.84;5054343;28;20460;-50
2024/02/20 10:12:44;;;;;;;0.30;0.20;;;;;;;12.03;77.66;101610.94;5054063;28;20489;-50
2024/02/20 10:15:14;;;;;;;0.30;0.20;;;;;;;12.23;78.29;101607.13;5054237;28;20482;-50
2024/02/20 10:17:41;;;;;;;0.30;0.20;;;;;;;12.10;76.68;101612.63;5053937;28;20450;-50
2024/02/20 10:20:12;;;;;;;0.30;0.20;;;;;;;12.14;77.52;101608.13;5054085;28;20451;-50
2024/02/20 10:22:40;;;;;;;0.30;0.20;;;;;;;12.06;77.28;101607.34;5041692;28;20470;-50
2024/02/20 10:25:14;;;;;;;0.30;0.20;;;;;;;12.17;76.65;101610.75;5053847;28;20859;-50
2024/02/20 10:27:42;;;;;;;0.30;0.20;;;;;;;12.23;77.71;101608.00;5044782;28;20579;-50
2024/02/20 10:30:10;;;;;;;0.30;0.20;;;;;;;12.23;77.38;101604.47;5050283;28;20498;-49
2024/02/20 10:32:37;;;;;;;0.30;0.20;;;;;;;12.23;76.30;101604.47;5053865;28;20467;-50
2024/02/20 10:35:09;;;;;;;0.30;0.20;;;;;;;12.20;76.50;101602.72;5053749;28;20516;-50
2024/02/20 10:37:38;;;;;;;0.30;0.20;;;;;;;12.06;76.94;101602.91;5044346;28;20439;-50
2024/02/20 10:40:07;;;;;;;0.30;0.20;;;;;;;12.42;76.66;101600.63;5053597;28;20459;-50
2024/02/20 10:42:54;;;;;;;0.30;0.20;;;;;;;12.66;75.93;101597.56;5053612;28;20494;-50
2024/02/20 10:45:22;;;;;;;0.30;0.20;;;;;;;12.72;75.93;101602.78;5046659;28;20451;-50
2024/02/20 10:47:50;;;;;;;0.30;0.20;;;;;;;12.87;76.84;101596.31;5036281;28;20487;-50
2024/02/20 10:50:18;;;;;;;0.30;0.20;;;;;;;12.52;74.49;101596.91;5053538;28;20841;-50
2024/02/20 10:52:44;;;;;;;0.30;0.20;;;;;;;12.79;74.90;101586.69;5053394;28;20529;-50
2024/02/20 10:55:12;;;;;;;0.30;0.20;;;;;;;13.05;74.62;101593.34;5053276;28;20960;-50
2024/02/20 10:58:00;;;;;;;0.30;0.20;;;;;;;13.12;75.61;101593.22;5053412;28;20451;-47
2024/02/20 11:00:30;;;;;;;0.30;0.20;;;;;;;13.05;75.00;101585.34;5053564;28;20442;-47
2024/02/20 11:02:58;;;;;;;0.30;0.20;;;;;;;13.74;73.74;101586.72;5053238;28;20557;-47
2024/02/20 11:05:26;;;;;;;0.30;0.20;;;;;;;13.50;74.40;101579.19;5050567;28;20457;-47
2024/02/20 11:08:03;;;;;;;0.30;0.20;;;;;;;13.86;72.04;101583.78;5052595;28;20472;-48
2024/02/20 11:10:32;;;;;;;0.30;0.20;;;;;;;14.19;72.05;101581.28;5053202;28;20451;-47
2024/02/20 11:12:58;;;;;;;0.30;0.20;;;;;;;13.80;69.65;101578.56;5053042;28;20486;-47
2024/02/20 11:15:28;;;;;;;0.30;0.20;;;;;;;13.57;69.15;101576.38;5052953;28;20893;-47
2024/02/20 11:17:54;;;;;;;0.30;0.20;;;;;;;13.53;71.34;101577.31;5052942;28;20451;-50
2024/02/20 11:20:23;;;;;;;0.30;0.20;;;;;;;13.43;70.14;101565.09;5052801;28;20421;-49
2024/02/20 11:22:51;;;;;;;0.30;0.20;;;;;;;13.34;71.78;101562.59;5052758;28;21049;-50
2024/02/20 11:25:28;;;;;;;0.30;0.20;;;;;;;13.22;71.37;101574.38;5052568;28;20794;-49
2024/02/20 11:27:55;;;;;;;0.30;0.20;;;;;;;13.31;71.83;101559.97;5041728;28;20499;-50
2024/02/20 11:30:24;;;;;;;0.30;0.20;;;;;;;13.31;72.27;101559.97;5050757;28;20446;-50
2024/02/20 11:32:55;;;;;;;0.30;0.20;;;;;;;13.42;71.40;101552.63;5052771;28;20528;-49